Oden, MI (49764)

11:32 PM EDT on May 03, 2015 (GMT -0400)
Alanson Swing Bridge | | Change Station
CLOSE
Current Station
Personal Weather Station
Location: Alanson, MI
Elevation: 597 ft
Nearby Weather Stations

Elev 597 ft 45.44 °N, 84.79 °W | Updated 12 seconds ago

Partly Cloudy
Partly Cloudy
63.4 °F
Feels Like 63.4 °F
N
0.0
Wind Variable Wind from SSW
Gusts 1.1 mph

Today
High -- | Low -- °F
--% Chance of Precip.
Yesterday
High -- | Low -- °F
Precip. -- in
6:25 AM 8:48 PM
Full, 100% visible
Pressure 29.87 in
Visibility 10.0 miles
Clouds Mostly Cloudy 8000 ft
Mostly Cloudy 10000 ft
Dew Point 49 °F
Humidity 60%
Rainfall 0.00 in
Snow Depth Not available.
UV 0 out of 12
Pollen 11.00 out of 12
Air Quality Not available.
Flu Activity Regional
METAR KMGN 040315Z AUTO 00000KT 10SM BKN080 BKN100 18/08 A2987 RMK AO2 T01880090

More Conditions Fewer Conditions

Pressure 29.87 in
Visibility 10.0 miles
Clouds Mostly Cloudy 8000 ft
Mostly Cloudy 10000 ft
Dew Point 49 °F
Humidity 60%
Rainfall 0.00 in
Snow Depth Not available.
UV 0 out of 12
Pollen 11.00 out of 12
Air Quality Not available.
Flu Activity Regional
METAR KMGN 040315Z AUTO 00000KT 10SM BKN080 BKN100 18/08 A2987 RMK AO2 T01880090

More Conditions Fewer Conditions

Nepal has a long way to go to dig out and rebuild from a devastating earthquake. We have teamed up with several charities and organizations to make contributing to the relief effort as easy as possible.
How you can help: Portlight Strategies | Red Cross
Nowcast | as of 11:00 PM EDT on May 3, 2015

At 12 am...showers and chance of thunderstorms. Temperature 59. Southwest winds 6 mph. At 2 am...showers and chance of thunderstorms. Temperature 57. Southwest winds 6 mph. At 4 am...showers likely and chance of thunderstorms. Temperature 54. Light winds. At 6 am...showers likely and chance of thunderstorms. Temperature 52. Light winds.

×

10-Day Weather Forecast

Almanac

Astronomy

May. 03, 2015 Rise Set
Actual Time
Civil Twilight
Nautical Twilight
Astronomical Twilight
Moon
Length of Visible Light
Length of Day
Tomorrow will be .
, % of the Moon is Illuminated

Today's Extremes

State Highs State Lows

Community

WunderPhotos

Upload Photos

1,818,498 photos uploaded!

WunderBlogs® & News

Nearby

Air Quality

  Air Quality AQ Index Pollutant
Not available.

Snow Depth

Station Depth Elevation

Earthquake Activity

City Distance Mag. Time & Date
Minimum magnitude displayed is 2.5.

Coastal Water Temperatures

Place Temperature

Stations

Nearby Weather Stations

Station Location Temp. Windchill Dew Point Humidity Wind Precip. Elev Updated Type